Terminal Aerodrome Forecast
Issued by NWS Charleston, WV

Current Version | Previous Version | Graphics & Text | Print | Product List | Glossary On
Versions: 1 2 3 4 5 6 7 8 9 10 11 12 13 14 15 16 17 18
186
FTUS41 KRLX 081516 AAA
TAFHTS
TAF AMD
KHTS 081516Z 0815/0912 22004KT 6SM -SHRA BR OVC008
     FM081900 23005KT 6SM -SHRA BR OVC012
     FM090200 26007KT 2SM -SHSN BR OVC007=

USA.gov is the U.S. government's official web portal to all federal, state and local government web resources and services.